Archival Weather

Snohomish County (Paine Fld)

Everett, Washington (KPAE)

Report from: Tuesday, November 7, 2023 12:20 AM PST
Current time: Monday, June 17, 2024 12:52 AM PDT

Current weather – Weather history – Daily summaries
Weather forecast

Temperature10.0°C (50.0°F)
Wind chill8.2°C (46.7°F)
Dew point8.3°C (46.9°F)
Winds 7 kts (3.6 m/s, 8.1 mph) South (180°)
Visibility10 mi. (16.1 km)
Clouds Scattered clouds 600 ft. (183 m)
Ceiling: Broken clouds 1,400 ft. (427 m)
Overcast 8,500 ft. (2,591 m)
Altimeter29.72 in.Hg (1006 mB)
Relative humidity89 %
Density altitude-209 ft. (-64 m)
Remarks Fully automated report
Automated weather observing station with precipitation discriminator
Flight conditions Marginal Visual Meteorological Conditions
Raw dataKPAE 070820Z AUTO 18007KT 10SM SCT006 BKN014 OVC085 10/08 A2972 RMK AO2 T01000083
An error has occurred. This application may no longer respond until reloaded. Reload 🗙